North Logan, Utah
Current Conditions -  °F | °C
As of 5:51 PM on Saturday 20 Dec 2014 (Local Time) from KLGU Reporting Station
Overcast Overcast  
Wind Chill: 35°   Ceiling: 3100
Heat Index: 39°   Visibility: 10mi
Dew Point: 34°   Wind: 6mph
Humidity: 82%   Direction: 190°S
Pressure: 30.06"   Gusts: NA
Location:  41.7766°N, 111.794°W
Report Text: KLGU 210051Z AUTO 19005KT 10SM OVC031 04/01 A3006 RMK AO2 SLP183 T00390011
Loading
Personal Weather Stations






























Interactive Weather Map New forecast layout! Learn more

10-Day Weather Forecast

Advertisements
Track Severe Weather on mobile